Terminal Aerodrome Forecast
Issued by NWS

Home | Current Version | Previous Version | Text Only | Print | Product List | Glossary On
Versions: 1 2 3 4 5 6 7 8 9 10 11 12 13 14 15 16 17
000
FTUS42 KGSP 112330
TAFGMU
TAF
KGMU 112330Z 1200/1224 22005KT P6SM SKC
     FM120600 23009KT P6SM SCT250
     FM121800 29011G20KT P6SM FEW040 SCT250=

USA.gov is the U.S. government's official web portal to all federal, state and local government web resources and services.